Time,TemperatureF,DewpointF,PressureIn,WindDirection,WindDirectionDegrees,WindSpeedMPH,WindSpeedGustMPH,Humidity,HourlyPrecipIn,Conditions,Clouds,dailyrainin,SoftwareType,DateUTC
2013-12-12 00:54:00,72.7,69.3,30.12,East,79,0.0,2.0,89,0.00,,SCT250,0.00,VWS V14.00,2013-12-12 05:54:00,
2013-12-12 01:54:00,72.1,69.7,30.12,ENE,78,0.0,0.0,92,0.00,,FEW027,0.00,VWS V14.00,2013-12-12 06:54:00,
2013-12-12 02:54:00,72.3,69.5,30.11,ENE,77,0.0,3.0,91,0.00,,SCT023TCU,0.00,VWS V14.00,2013-12-12 07:54:00,
2013-12-12 03:54:00,72.2,69.4,30.11,ENE,77,0.0,2.0,91,0.00,,FEW025TCU,0.00,VWS V14.00,2013-12-12 08:54:00,
2013-12-12 04:54:00,71.3,69.2,30.11,North,9,0.0,3.0,93,0.00,,FEW027TCU,0.00,VWS V14.00,2013-12-12 09:54:00,
2013-12-12 05:54:00,70.5,68.7,30.12,North,9,0.0,4.0,94,0.00,,SCT180,0.00,VWS V14.00,2013-12-12 10:54:00,
2013-12-12 06:54:00,70.2,68.7,30.14,North,9,3.0,3.0,95,0.00,,,0.00,VWS V14.00,2013-12-12 11:54:00,
2013-12-12 07:54:00,70.6,69.4,30.16,North,355,2.0,7.0,96,0.00,,,0.00,VWS V14.00,2013-12-12 12:54:00,
2013-12-12 08:54:00,71.7,69.9,30.18,NNW,343,6.0,12.0,94,0.00,,BKN006,0.00,VWS V14.00,2013-12-12 13:54:00,
2013-12-12 09:54:00,74.3,69.5,30.19,North,5,2.0,13.0,85,0.00,,BKN200,0.00,VWS V14.00,2013-12-12 14:54:00,
2013-12-12 10:54:00,76.8,69.4,30.18,NW,306,3.0,11.0,78,0.00,,BKN200,0.00,VWS V14.00,2013-12-12 15:54:00,
2013-12-12 11:54:00,77.6,68.7,30.17,NE,53,4.0,15.0,74,0.00,,BKN200,0.00,VWS V14.00,2013-12-12 16:54:00,
2013-12-12 12:54:00,76.6,68.5,30.14,North,349,10.0,13.0,76,0.00,,BKN200,0.00,VWS V14.00,2013-12-12 17:54:00,
2013-12-12 13:54:00,74.3,67.4,30.12,NNE,22,2.0,16.0,79,0.00,,OVC019,0.00,VWS V14.00,2013-12-12 18:54:00,
2013-12-12 14:54:00,73.6,65.9,30.12,NNW,341,4.0,19.0,77,0.00,,OVC019,0.00,VWS V14.00,2013-12-12 19:54:00,
2013-12-12 15:54:00,73.2,63.2,30.12,NNW,327,3.0,20.0,71,0.00,,OVC019,0.00,VWS V14.00,2013-12-12 20:54:00,
2013-12-12 16:54:00,71.8,61.9,30.12,NNE,25,9.0,19.0,71,0.00,,SCT250,0.00,VWS V14.00,2013-12-12 21:54:00,
2013-12-12 17:54:00,70.7,60.8,30.13,North,355,0.0,17.0,71,0.00,,SCT250,0.00,VWS V14.00,2013-12-12 22:54:00,
2013-12-12 18:54:00,71.2,60.9,30.15,NE,44,9.0,14.0,70,0.00,,SCT250,0.00,VWS V14.00,2013-12-12 23:54:00,
2013-12-12 19:54:00,72.6,60.6,30.16,NE,52,10.0,16.0,66,0.00,,FEW028,0.00,VWS V14.00,2013-12-13 00:54:00,
2013-12-12 20:54:00,72.6,61.0,30.17,ENE,71,10.0,17.0,67,0.00,,FEW040,0.00,VWS V14.00,2013-12-13 01:54:00,
2013-12-12 21:54:00,72.1,59.7,30.18,NE,47,13.0,20.0,65,0.00,,SCT250,0.00,VWS V14.00,2013-12-13 02:54:00,
2013-12-12 22:54:00,72.3,61.2,30.17,ENE,69,4.0,19.0,68,0.00,,BKN042,0.00,VWS V14.00,2013-12-13 03:54:00,
2013-12-12 23:56:00,71.9,59.9,30.16,NE,44,9.0,20.0,66,0.00,,BKN047,0.00,VWS V14.00,2013-12-13 04:56:00,